sensor_id;sensor_type;location;lat;lon;timestamp;P1;durP1;ratioP1;P2;durP2;ratioP2
78141;SDS011;67393;52.620;13.482;2023-03-04T16:06:13;15.40;;;3.75;;
78141;SDS011;67393;52.620;13.482;2023-03-04T16:08:41;19.73;;;4.40;;
78141;SDS011;67393;52.620;13.482;2023-03-04T16:11:14;18.55;;;3.17;;
78141;SDS011;67393;52.620;13.482;2023-03-04T16:13:45;20.00;;;3.22;;
78141;SDS011;67393;52.620;13.482;2023-03-04T16:16:12;15.68;;;3.35;;
78141;SDS011;67393;52.620;13.482;2023-03-04T16:21:19;20.15;;;4.10;;
78141;SDS011;67393;52.620;13.482;2023-03-04T16:23:47;17.85;;;3.88;;
78141;SDS011;67393;52.620;13.482;2023-03-04T16:26:16;14.15;;;3.45;;
78141;SDS011;67393;52.620;13.482;2023-03-04T16:28:43;10.32;;;3.03;;
78141;SDS011;67393;52.620;13.482;2023-03-04T16:31:10;11.43;;;3.22;;
78141;SDS011;67393;52.620;13.482;2023-03-04T16:33:39;11.85;;;3.20;;
78141;SDS011;67393;52.620;13.482;2023-03-04T16:36:11;19.88;;;3.15;;
78141;SDS011;67393;52.620;13.482;2023-03-04T16:38:40;16.52;;;2.83;;
78141;SDS011;67393;52.620;13.482;2023-03-04T16:41:09;13.23;;;2.97;;
78141;SDS011;67393;52.620;13.482;2023-03-04T16:43:36;15.40;;;4.05;;
78141;SDS011;67393;52.620;13.482;2023-03-04T16:46:03;12.40;;;3.20;;
78141;SDS011;67393;52.620;13.482;2023-03-04T16:48:29;16.75;;;3.45;;
78141;SDS011;67393;52.620;13.482;2023-03-04T16:50:55;11.63;;;3.28;;
78141;SDS011;67393;52.620;13.482;2023-03-04T16:53:23;10.68;;;3.35;;
78141;SDS011;67393;52.620;13.482;2023-03-04T16:55:53;17.60;;;5.53;;
78141;SDS011;67393;52.620;13.482;2023-03-04T16:58:20;14.27;;;4.25;;
78141;SDS011;67393;52.620;13.482;2023-03-04T17:00:46;18.45;;;3.83;;
78141;SDS011;67393;52.620;13.482;2023-03-04T17:03:12;16.27;;;3.35;;
78141;SDS011;67393;52.620;13.482;2023-03-04T17:05:39;16.30;;;2.85;;
78141;SDS011;67393;52.620;13.482;2023-03-04T17:08:05;23.00;;;4.55;;
78141;SDS011;67393;52.620;13.482;2023-03-04T17:10:31;11.35;;;3.30;;
78141;SDS011;67393;52.620;13.482;2023-03-04T17:12:58;13.88;;;4.28;;
78141;SDS011;67393;52.620;13.482;2023-03-04T17:15:24;14.77;;;3.40;;
78141;SDS011;67393;52.620;13.482;2023-03-04T17:17:51;13.27;;;3.33;;
78141;SDS011;67393;52.620;13.482;2023-03-04T17:20:18;16.10;;;3.30;;
78141;SDS011;67393;52.620;13.482;2023-03-04T17:22:44;16.60;;;3.45;;
78141;SDS011;67393;52.620;13.482;2023-03-04T17:25:11;15.00;;;3.33;;
78141;SDS011;67393;52.620;13.482;2023-03-04T17:27:38;14.93;;;3.67;;
78141;SDS011;67393;52.620;13.482;2023-03-04T17:30:04;15.20;;;4.13;;
78141;SDS011;67393;52.620;13.482;2023-03-04T17:32:33;12.98;;;3.47;;
78141;SDS011;67393;52.620;13.482;2023-03-04T17:35:00;17.33;;;3.60;;
78141;SDS011;67393;52.620;13.482;2023-03-04T17:37:26;8.05;;;2.80;;
78141;SDS011;67393;52.620;13.482;2023-03-04T17:39:52;10.57;;;3.38;;
78141;SDS011;67393;52.620;13.482;2023-03-04T17:42:19;12.93;;;4.28;;
78141;SDS011;67393;52.620;13.482;2023-03-04T17:44:45;14.02;;;4.18;;
78141;SDS011;67393;52.620;13.482;2023-03-04T17:47:12;10.15;;;3.80;;
78141;SDS011;67393;52.620;13.482;2023-03-04T17:49:39;8.27;;;3.25;;
78141;SDS011;67393;52.620;13.482;2023-03-04T17:52:05;16.33;;;4.07;;
78141;SDS011;67393;52.620;13.482;2023-03-04T17:54:31;17.85;;;4.15;;
78141;SDS011;67393;52.620;13.482;2023-03-04T17:56:58;11.18;;;5.10;;
78141;SDS011;67393;52.620;13.482;2023-03-04T17:59:24;19.63;;;4.80;;
78141;SDS011;67393;52.620;13.482;2023-03-04T18:01:50;12.85;;;3.85;;
78141;SDS011;67393;52.620;13.482;2023-03-04T18:04:19;13.55;;;3.53;;
78141;SDS011;67393;52.620;13.482;2023-03-04T18:06:46;16.73;;;3.30;;
78141;SDS011;67393;52.620;13.482;2023-03-04T18:09:12;12.88;;;3.03;;
78141;SDS011;67393;52.620;13.482;2023-03-04T18:11:40;17.52;;;4.40;;
78141;SDS011;67393;52.620;13.482;2023-03-04T18:14:06;9.80;;;3.90;;
78141;SDS011;67393;52.620;13.482;2023-03-04T18:16:33;13.60;;;3.92;;
78141;SDS011;67393;52.620;13.482;2023-03-04T18:19:00;10.85;;;2.85;;
78141;SDS011;67393;52.620;13.482;2023-03-04T18:21:27;14.57;;;4.15;;
78141;SDS011;67393;52.620;13.482;2023-03-04T18:23:55;12.18;;;2.90;;
78141;SDS011;67393;52.620;13.482;2023-03-04T18:26:22;14.68;;;3.58;;
78141;SDS011;67393;52.620;13.482;2023-03-04T18:28:49;13.25;;;3.80;;
78141;SDS011;67393;52.620;13.482;2023-03-04T18:31:20;12.82;;;3.28;;
78141;SDS011;67393;52.620;13.482;2023-03-04T18:33:49;15.20;;;4.03;;
78141;SDS011;67393;52.620;13.482;2023-03-04T18:36:16;18.55;;;3.35;;
78141;SDS011;67393;52.620;13.482;2023-03-04T18:38:42;10.30;;;3.60;;
78141;SDS011;67393;52.620;13.482;2023-03-04T18:41:10;11.57;;;3.42;;
78141;SDS011;67393;52.620;13.482;2023-03-04T18:43:39;13.73;;;3.40;;
78141;SDS011;67393;52.620;13.482;2023-03-04T18:46:09;19.52;;;4.80;;
78141;SDS011;67393;52.620;13.482;2023-03-04T18:48:48;18.08;;;4.07;;
78141;SDS011;67393;52.620;13.482;2023-03-04T18:51:17;12.40;;;4.03;;
78141;SDS011;67393;52.620;13.482;2023-03-04T18:53:45;15.73;;;3.58;;
78141;SDS011;67393;52.620;13.482;2023-03-04T18:56:15;18.15;;;4.35;;
78141;SDS011;67393;52.620;13.482;2023-03-04T18:58:55;12.68;;;3.22;;
78141;SDS011;67393;52.620;13.482;2023-03-04T19:01:24;10.98;;;2.83;;
78141;SDS011;67393;52.620;13.482;2023-03-04T19:03:51;11.95;;;2.50;;
78141;SDS011;67393;52.620;13.482;2023-03-04T19:06:18;11.10;;;2.38;;
78141;SDS011;67393;52.620;13.482;2023-03-04T19:08:44;8.30;;;2.10;;
78141;SDS011;67393;52.620;13.482;2023-03-04T19:11:11;10.00;;;3.13;;
78141;SDS011;67393;52.620;13.482;2023-03-04T19:13:37;10.18;;;2.30;;
78141;SDS011;67393;52.620;13.482;2023-03-04T19:16:03;5.30;;;2.10;;
78141;SDS011;67393;52.620;13.482;2023-03-04T19:18:30;13.85;;;2.38;;
78141;SDS011;67393;52.620;13.482;2023-03-04T19:20:58;10.77;;;3.67;;
78141;SDS011;67393;52.620;13.482;2023-03-04T19:23:24;8.77;;;2.47;;
78141;SDS011;67393;52.620;13.482;2023-03-04T19:25:51;7.53;;;2.08;;
78141;SDS011;67393;52.620;13.482;2023-03-04T19:28:17;5.15;;;1.98;;
78141;SDS011;67393;52.620;13.482;2023-03-04T19:30:43;9.63;;;2.50;;
78141;SDS011;67393;52.620;13.482;2023-03-04T19:33:10;5.97;;;1.80;;
78141;SDS011;67393;52.620;13.482;2023-03-04T19:35:40;8.35;;;2.05;;
78141;SDS011;67393;52.620;13.482;2023-03-04T19:38:08;9.70;;;3.20;;
78141;SDS011;67393;52.620;13.482;2023-03-04T19:40:36;6.95;;;1.98;;
78141;SDS011;67393;52.620;13.482;2023-03-04T19:43:04;9.48;;;2.85;;
78141;SDS011;67393;52.620;13.482;2023-03-04T19:45:30;8.48;;;2.45;;
78141;SDS011;67393;52.620;13.482;2023-03-04T19:47:57;13.10;;;2.33;;
78141;SDS011;67393;52.620;13.482;2023-03-04T19:50:23;7.03;;;2.30;;
78141;SDS011;67393;52.620;13.482;2023-03-04T19:52:49;7.28;;;2.97;;
78141;SDS011;67393;52.620;13.482;2023-03-04T20:00:26;10.25;;;2.70;;
78141;SDS011;67393;52.620;13.482;2023-03-04T20:02:53;8.30;;;2.30;;
78141;SDS011;67393;52.620;13.482;2023-03-04T20:05:20;5.85;;;2.30;;
78141;SDS011;67393;52.620;13.482;2023-03-04T20:07:46;13.65;;;2.35;;
78141;SDS011;67393;52.620;13.482;2023-03-04T20:10:13;5.78;;;2.00;;
78141;SDS011;67393;52.620;13.482;2023-03-04T20:12:39;9.98;;;2.38;;
78141;SDS011;67393;52.620;13.482;2023-03-04T20:15:06;4.63;;;2.30;;
78141;SDS011;67393;52.620;13.482;2023-03-04T20:17:33;6.68;;;2.75;;
78141;SDS011;67393;52.620;13.482;2023-03-04T20:19:59;10.18;;;2.40;;
78141;SDS011;67393;52.620;13.482;2023-03-04T20:22:25;10.00;;;2.33;;
78141;SDS011;67393;52.620;13.482;2023-03-04T20:24:52;3.90;;;1.67;;
78141;SDS011;67393;52.620;13.482;2023-03-04T20:27:18;5.00;;;2.17;;
78141;SDS011;67393;52.620;13.482;2023-03-04T20:29:44;6.88;;;2.15;;
78141;SDS011;67393;52.620;13.482;2023-03-04T20:32:11;8.02;;;2.38;;
78141;SDS011;67393;52.620;13.482;2023-03-04T20:34:37;2.65;;;1.67;;
78141;SDS011;67393;52.620;13.482;2023-03-04T20:37:03;4.65;;;1.92;;
78141;SDS011;67393;52.620;13.482;2023-03-04T20:39:30;6.85;;;2.50;;
78141;SDS011;67393;52.620;13.482;2023-03-04T20:41:56;6.68;;;2.00;;
78141;SDS011;67393;52.620;13.482;2023-03-04T20:44:23;4.45;;;1.80;;
78141;SDS011;67393;52.620;13.482;2023-03-04T20:46:50;6.55;;;2.25;;
78141;SDS011;67393;52.620;13.482;2023-03-04T20:49:18;3.88;;;2.28;;
78141;SDS011;67393;52.620;13.482;2023-03-04T20:51:53;5.53;;;2.13;;
78141;SDS011;67393;52.620;13.482;2023-03-04T20:54:26;6.75;;;1.70;;
78141;SDS011;67393;52.620;13.482;2023-03-04T20:56:53;2.92;;;1.60;;
78141;SDS011;67393;52.620;13.482;2023-03-04T20:59:20;5.68;;;1.60;;
78141;SDS011;67393;52.620;13.482;2023-03-04T21:01:46;6.32;;;2.28;;
78141;SDS011;67393;52.620;13.482;2023-03-04T21:04:13;3.40;;;2.00;;
78141;SDS011;67393;52.620;13.482;2023-03-04T21:06:40;3.30;;;2.22;;
78141;SDS011;67393;52.620;13.482;2023-03-04T21:09:08;4.85;;;2.40;;
78141;SDS011;67393;52.620;13.482;2023-03-04T21:11:37;6.68;;;2.38;;
78141;SDS011;67393;52.620;13.482;2023-03-04T21:14:03;9.52;;;2.20;;
78141;SDS011;67393;52.620;13.482;2023-03-04T21:16:30;6.68;;;2.28;;
78141;SDS011;67393;52.620;13.482;2023-03-04T21:18:56;3.53;;;2.25;;
78141;SDS011;67393;52.620;13.482;2023-03-04T21:21:26;4.10;;;1.65;;
78141;SDS011;67393;52.620;13.482;2023-03-04T21:23:54;4.35;;;1.67;;
78141;SDS011;67393;52.620;13.482;2023-03-04T21:26:22;4.93;;;1.90;;
78141;SDS011;67393;52.620;13.482;2023-03-04T21:31:16;4.85;;;1.92;;
78141;SDS011;67393;52.620;13.482;2023-03-04T21:33:45;3.55;;;1.60;;
78141;SDS011;67393;52.620;13.482;2023-03-04T21:36:12;7.10;;;2.05;;
78141;SDS011;67393;52.620;13.482;2023-03-04T21:38:40;2.85;;;1.98;;
78141;SDS011;67393;52.620;13.482;2023-03-04T21:41:16;6.78;;;2.42;;
78141;SDS011;67393;52.620;13.482;2023-03-04T21:43:44;6.85;;;2.33;;
78141;SDS011;67393;52.620;13.482;2023-03-04T21:46:12;5.25;;;2.03;;
78141;SDS011;67393;52.620;13.482;2023-03-04T21:48:40;11.45;;;3.58;;
78141;SDS011;67393;52.620;13.482;2023-03-04T21:51:07;14.73;;;4.43;;
78141;SDS011;67393;52.620;13.482;2023-03-04T21:53:35;10.85;;;4.95;;
78141;SDS011;67393;52.620;13.482;2023-03-04T21:56:02;7.03;;;4.38;;
78141;SDS011;67393;52.620;13.482;2023-03-04T21:58:29;10.82;;;4.78;;
78141;SDS011;67393;52.620;13.482;2023-03-04T22:00:56;10.80;;;3.78;;
78141;SDS011;67393;52.620;13.482;2023-03-04T22:03:23;5.85;;;3.38;;
78141;SDS011;67393;52.620;13.482;2023-03-04T22:05:49;15.32;;;4.18;;
78141;SDS011;67393;52.620;13.482;2023-03-04T22:08:17;14.38;;;4.70;;
78141;SDS011;67393;52.620;13.482;2023-03-04T22:10:45;13.02;;;4.22;;
